Impacts TAF Board
For situational awareness. Not to be used for flight planning purposes.
IDs:

KAST - Astoria Rgnl, OR, US

Issued at 2327 UTC 05 Dec 2019
Updated at 0119 UTC 06 Dec 2019
Potential Impact None Slight Moderate High
Time0055Z 06/02Z 06/03Z 06/04Z 06/05Z 06/06Z 06/07Z 06/08Z 06/09Z 06/10Z 06/11Z 06/12Z 06/13Z 06/14Z>>
Type OBS PRVL PRVL PRVL PRVL PRVL PRVL PRVL PRVL PRVL PRVL PRVL PRVL PRVL
VIS 10 >6 >6 >6 >6 >6 >6 >6 >6 >6 >6 >6 >6 >6
CIG -- 35 35 35 150 150 150 150 150 150 150 150 150 150
Cover SCT OVC OVC OVC OVC OVC OVC OVC OVC OVC OVC OVC OVC OVC
FltCat VFR VFR VFR VFR VFR VFR VFR VFR VFR VFR VFR VFR VFR VFR
WX -- -- -- -- -- -- -- -- -- -- -- -- -- --
WDir 140 VRB VRB VRB VRB VRB VRB VRB VRB VRB VRB VRB VRB VRB
WSpd 5 5 5 5 3 3 3 3 3 3 3 3 3 3
WGst -- -- -- -- -- -- -- -- -- -- -- -- -- --
Raw TAF
KAST 052327Z 0600/0624 VRB05KT P6SM SCT025 BKN035 OVC050
  TEMPO 0600/0602 BKN025
  FM060500 VRB03KT P6SM SCT040 OVC150
  FM061500 08005KT P6SM VCSH BKN040
  FM062200 12006KT P6SM -RA BKN028


Raw METAR
KAST 060055Z AUTO 14005KT 10SM SCT080 09/07 A2997 RMK AO2 SLP149 T00940067
KAST 052355Z AUTO 10005KT 10SM FEW030 OVC037 10/07 A2999 RMK AO2 SLP154 T01000072 10106 20083 58005
KAST 052328Z AUTO 06006KT 10SM OVC030 10/07 A2999 RMK AO2 T01000072
KAST 052321Z AUTO 08004KT 10SM OVC029 10/07 A2999 RMK AO2 T01000072
KAST 052302Z AUTO 06004KT 10SM OVC030 10/07 A2999 RMK AO2 T01000072
KAST 052255Z AUTO 06005KT 10SM OVC029 10/07 A2999 RMK AO2 SLP157 T01000072
KAST 052239Z AUTO 06005KT 10SM SCT015 OVC028 10/07 A3000 RMK AO2 T01000072

METAR Board
Radar Display
Forecast Discussion
For situational awareness. Not to be used for flight planning purposes.